Time;durP1;ratioP1;P1;durP2;ratioP2;P2;SDS_P1;SDS_P2;PMS_P1;PMS_P2;Temp;Humidity;BMP_temperature;BMP_pressure;BME280_temperature;BME280_humidity;BME280_pressure;Samples;Min_cycle;Max_cycle;Signal;HPM_P1;HPM_P2
2023/05/30 00:01:13;;;;;;;;;;;10.50;99.90;;;;;;5069477;28;19916;-47
2023/05/30 00:03:39;;;;;;;;;;;10.50;99.90;;;;;;5070033;28;19970;-48
2023/05/30 00:06:05;;;;;;;;;;;10.50;99.90;;;;;;5070600;28;19916;-50
2023/05/30 00:08:31;;;;;;;;;;;10.50;99.90;;;;;;5069355;28;20142;-50
2023/05/30 00:10:56;;;;;;;;;;;10.50;99.90;;;;;;5070020;28;19920;-54
2023/05/30 00:13:22;;;;;;;;;;;10.50;99.90;;;;;;5069380;28;19973;-48
2023/05/30 00:15:49;;;;;;;;;;;10.50;99.90;;;;;;5070196;28;19932;-48
2023/05/30 00:18:14;;;;;;;;;;;10.50;99.90;;;;;;5069871;28;19958;-48
2023/05/30 00:20:40;;;;;;;;;;;10.50;99.90;;;;;;5069835;28;20353;-48
2023/05/30 00:23:05;;;;;;;;;;;10.50;99.90;;;;;;5067741;28;19962;-48
2023/05/30 00:25:32;;;;;;;;;;;10.50;99.90;;;;;;5069618;28;19920;-51
2023/05/30 00:27:58;;;;;;;;;;;10.50;99.90;;;;;;5051445;28;19920;-48
2023/05/30 00:30:24;;;;;;;;;;;10.50;99.90;;;;;;5069351;28;19939;-48
2023/05/30 00:32:49;;;;;;;;;;;10.50;99.90;;;;;;5070240;28;19917;-50
2023/05/30 00:35:15;;;;;;;;;;;10.50;99.90;;;;;;5069273;28;20173;-48
2023/05/30 00:37:40;;;;;;;;;;;10.50;99.90;;;;;;5071516;28;19920;-48
2023/05/30 00:40:06;;;;;;;;;;;10.50;99.90;;;;;;5073516;28;19924;-50
2023/05/30 00:42:32;;;;;;;;;;;10.50;99.90;;;;;;5074036;28;19939;-51
2023/05/30 00:44:57;;;;;;;;;;;10.50;99.90;;;;;;5072855;28;20099;-53
2023/05/30 00:47:23;;;;;;;;;;;10.50;99.90;;;;;;5073637;28;20301;-55
2023/05/30 00:49:49;;;;;;;;;;;10.50;99.90;;;;;;5073210;28;19962;-55
2023/05/30 00:52:15;;;;;;;;;;;10.60;99.90;;;;;;5073516;28;19982;-55
2023/05/30 00:54:44;;;;;;;;;;;10.60;99.90;;;;;;5072998;28;20431;-55
2023/05/30 00:57:10;;;;;;;;;;;10.60;99.90;;;;;;5073592;28;19916;-53
2023/05/30 00:59:36;;;;;;;;;;;10.70;99.90;;;;;;5072059;28;19920;-53
2023/05/30 01:02:02;;;;;;;;;;;10.80;99.90;;;;;;5073188;28;20389;-53
2023/05/30 01:04:28;;;;;;;;;;;10.80;99.90;;;;;;5073043;28;19923;-52
2023/05/30 01:06:53;;;;;;;;;;;10.90;99.90;;;;;;5073192;28;19917;-53
2023/05/30 01:09:19;;;;;;;;;;;11.00;99.90;;;;;;5071933;28;19916;-53
2023/05/30 01:11:45;;;;;;;;;;;11.00;99.90;;;;;;5055569;28;20014;-52
2023/05/30 01:14:10;;;;;;;;;;;11.00;99.90;;;;;;5071065;28;19931;-54
2023/05/30 01:16:39;;;;;;;;;;;11.00;99.90;;;;;;5071669;28;19966;-50
2023/05/30 01:19:07;;;;;;;;;;;11.10;99.90;;;;;;5070929;28;19924;-52
2023/05/30 01:21:33;;;;;;;;;;;11.10;99.90;;;;;;5071941;28;20009;-53
2023/05/30 01:24:00;;;;;;;;;;;11.10;99.90;;;;;;5070950;28;19932;-48
2023/05/30 01:26:37;;;;;;;;;;;11.10;99.90;;;;;;5072239;28;20430;-53
2023/05/30 01:29:03;;;;;;;;;;;11.10;99.90;;;;;;5070630;28;20006;-52
2023/05/30 01:31:30;;;;;;;;;;;11.20;99.90;;;;;;5071831;28;20313;-54
2023/05/30 01:33:56;;;;;;;;;;;11.20;99.90;;;;;;5071836;28;20007;-54
2023/05/30 01:36:21;;;;;;;;;;;11.20;99.90;;;;;;5071262;28;20007;-49
2023/05/30 01:38:47;;;;;;;;;;;11.20;99.90;;;;;;5071288;28;20368;-50
2023/05/30 01:41:17;;;;;;;;;;;11.20;99.90;;;;;;5070698;28;20012;-52
2023/05/30 01:43:42;;;;;;;;;;;11.20;99.90;;;;;;5071380;28;20307;-54
2023/05/30 01:46:14;;;;;;;;;;;11.20;99.90;;;;;;5071358;28;19916;-51
2023/05/30 01:48:46;;;;;;;;;;;11.20;99.90;;;;;;5070803;28;19916;-51
2023/05/30 01:51:14;;;;;;;;;;;11.20;99.90;;;;;;5071679;28;20009;-50
2023/05/30 01:53:42;;;;;;;;;;;11.20;99.90;;;;;;5070957;28;19916;-48
2023/05/30 01:56:09;;;;;;;;;;;11.30;99.90;;;;;;5053764;28;19916;-52
2023/05/30 01:58:36;;;;;;;;;;;11.30;99.90;;;;;;5070674;28;19923;-49
2023/05/30 02:01:02;;;;;;;;;;;11.30;99.90;;;;;;5071328;28;20054;-48
2023/05/30 02:03:28;;;;;;;;;;;11.30;99.90;;;;;;5071066;28;20217;-48
2023/05/30 02:05:54;;;;;;;;;;;11.30;99.90;;;;;;5070788;28;19917;-51
2023/05/30 02:08:19;;;;;;;;;;;11.30;99.90;;;;;;5070422;28;20008;-48
2023/05/30 02:10:45;;;;;;;;;;;11.30;99.90;;;;;;5071423;28;19970;-51
2023/05/30 02:13:11;;;;;;;;;;;11.30;99.90;;;;;;5034420;28;1051263;-48
2023/05/30 02:15:36;;;;;;;;;;;11.30;99.90;;;;;;5072235;28;20007;-52
2023/05/30 02:18:03;;;;;;;;;;;11.40;99.90;;;;;;5071037;28;20357;-50
2023/05/30 02:20:28;;;;;;;;;;;11.40;99.90;;;;;;5072245;28;19964;-49
2023/05/30 02:22:54;;;;;;;;;;;11.30;99.90;;;;;;5072062;28;20442;-48
2023/05/30 02:25:20;;;;;;;;;;;11.40;99.90;;;;;;5071506;28;19916;-48
2023/05/30 02:27:47;;;;;;;;;;;11.40;99.90;;;;;;5070098;28;19924;-51
2023/05/30 02:30:13;;;;;;;;;;;11.40;99.90;;;;;;5070756;28;19923;-50
2023/05/30 02:32:38;;;;;;;;;;;11.40;99.90;;;;;;5071372;28;20297;-48
2023/05/30 02:35:04;;;;;;;;;;;11.40;99.90;;;;;;5071141;28;19916;-49
2023/05/30 02:37:29;;;;;;;;;;;11.40;99.90;;;;;;5070837;28;20288;-51
2023/05/30 02:39:55;;;;;;;;;;;11.40;99.90;;;;;;5071168;28;19920;-50
2023/05/30 02:42:20;;;;;;;;;;;11.40;99.90;;;;;;5071488;28;19928;-48
2023/05/30 02:44:46;;;;;;;;;;;11.40;99.90;;;;;;5071201;28;19925;-50
2023/05/30 02:47:11;;;;;;;;;;;11.40;99.90;;;;;;5071211;28;20015;-50
2023/05/30 02:49:37;;;;;;;;;;;11.40;99.90;;;;;;5070703;28;19916;-48
2023/05/30 02:52:02;;;;;;;;;;;11.40;99.90;;;;;;5070755;28;19916;-49
2023/05/30 02:54:28;;;;;;;;;;;11.30;99.90;;;;;;5071417;28;20022;-48
2023/05/30 02:56:53;;;;;;;;;;;11.30;99.90;;;;;;5070971;28;19961;-51
2023/05/30 02:59:19;;;;;;;;;;;11.30;99.90;;;;;;5069567;28;19920;-48
2023/05/30 03:01:44;;;;;;;;;;;11.30;99.90;;;;;;5071091;28;19967;-55
2023/05/30 03:04:10;;;;;;;;;;;11.30;99.90;;;;;;5071053;28;19967;-54
2023/05/30 03:06:37;;;;;;;;;;;11.30;99.90;;;;;;5070870;28;19924;-55
2023/05/30 03:09:03;;;;;;;;;;;11.30;99.90;;;;;;5069941;28;19916;-54
2023/05/30 03:11:29;;;;;;;;;;;11.30;99.90;;;;;;5071108;28;19986;-55
2023/05/30 03:13:54;;;;;;;;;;;11.30;99.90;;;;;;5070296;28;20404;-55
2023/05/30 03:16:20;;;;;;;;;;;11.30;99.90;;;;;;5071176;28;20365;-54
2023/05/30 03:18:45;;;;;;;;;;;11.30;99.90;;;;;;5069458;28;19916;-51
2023/05/30 03:21:11;;;;;;;;;;;11.30;99.90;;;;;;5070625;28;19927;-50
2023/05/30 03:23:37;;;;;;;;;;;11.30;99.90;;;;;;5070366;28;20072;-53
2023/05/30 03:26:06;;;;;;;;;;;11.30;99.90;;;;;;5071035;28;19969;-54
2023/05/30 03:28:32;;;;;;;;;;;11.30;99.90;;;;;;5069503;28;19927;-54
2023/05/30 03:30:58;;;;;;;;;;;11.30;99.90;;;;;;5070723;28;19920;-53
2023/05/30 03:33:23;;;;;;;;;;;11.30;99.90;;;;;;5069982;28;19916;-48
2023/05/30 03:35:49;;;;;;;;;;;11.30;99.90;;;;;;5070492;28;19981;-50
2023/05/30 03:38:14;;;;;;;;;;;11.30;99.90;;;;;;5069664;28;19917;-54
2023/05/30 03:40:40;;;;;;;;;;;11.30;99.90;;;;;;5052859;28;19974;-52
2023/05/30 03:43:06;;;;;;;;;;;11.30;99.90;;;;;;5070371;28;19920;-53
2023/05/30 03:45:31;;;;;;;;;;;11.30;99.90;;;;;;5070392;28;20361;-51
2023/05/30 03:47:57;;;;;;;;;;;11.40;99.90;;;;;;5069377;28;20384;-49
2023/05/30 03:50:23;;;;;;;;;;;11.40;99.90;;;;;;5069877;28;20011;-51
2023/05/30 03:52:48;;;;;;;;;;;11.40;99.90;;;;;;5070596;28;20012;-54
2023/05/30 03:55:14;;;;;;;;;;;11.40;99.90;;;;;;5069799;28;19924;-51
2023/05/30 03:57:40;;;;;;;;;;;11.40;99.90;;;;;;5068941;28;19951;-50
2023/05/30 04:00:05;;;;;;;;;;;11.40;99.90;;;;;;5069966;28;19974;-49
2023/05/30 04:02:31;;;;;;;;;;;11.40;99.90;;;;;;5070150;28;20324;-48
2023/05/30 04:04:57;;;;;;;;;;;11.40;99.90;;;;;;5069840;28;19916;-49
2023/05/30 04:07:24;;;;;;;;;;;11.40;99.90;;;;;;5070020;28;19921;-54
2023/05/30 04:09:50;;;;;;;;;;;11.50;99.90;;;;;;5069158;28;19916;-53
2023/05/30 04:12:16;;;;;;;;;;;11.50;99.90;;;;;;5070156;28;20579;-48
2023/05/30 04:14:41;;;;;;;;;;;11.50;99.90;;;;;;5069630;28;19920;-49
2023/05/30 04:17:07;;;;;;;;;;;11.50;99.90;;;;;;5051856;28;19916;-49
2023/05/30 04:19:32;;;;;;;;;;;11.50;99.90;;;;;;5068718;28;19924;-48
2023/05/30 04:21:58;;;;;;;;;;;11.60;99.90;;;;;;5070168;28;20083;-50
2023/05/30 04:24:23;;;;;;;;;;;11.60;99.90;;;;;;5069545;28;20381;-48
2023/05/30 04:26:50;;;;;;;;;;;11.60;99.90;;;;;;5069847;28;20030;-50
2023/05/30 04:29:19;;;;;;;;;;;11.70;99.90;;;;;;5068982;28;19917;-48
2023/05/30 04:31:45;;;;;;;;;;;11.70;99.90;;;;;;5069984;28;19943;-50
2023/05/30 04:34:11;;;;;;;;;;;11.70;99.90;;;;;;5068471;28;20392;-48
2023/05/30 04:36:37;;;;;;;;;;;11.70;99.90;;;;;;5070132;28;19917;-50
2023/05/30 04:39:02;;;;;;;;;;;11.80;99.90;;;;;;5068462;28;19922;-51
2023/05/30 04:41:28;;;;;;;;;;;11.80;99.90;;;;;;5069807;28;20007;-48
2023/05/30 04:43:59;;;;;;;;;;;11.90;99.90;;;;;;5069248;28;19916;-48
2023/05/30 04:46:27;;;;;;;;;;;11.90;99.90;;;;;;5069642;28;19923;-51
2023/05/30 04:48:55;;;;;;;;;;;11.90;99.90;;;;;;5067870;28;20011;-51
2023/05/30 04:51:21;;;;;;;;;;;12.00;99.90;;;;;;5070182;28;19919;-50
2023/05/30 04:53:47;;;;;;;;;;;12.10;99.90;;;;;;5068937;28;19999;-52
2023/05/30 04:56:12;;;;;;;;;;;12.10;99.90;;;;;;5070237;28;19924;-49
2023/05/30 04:58:38;;;;;;;;;;;12.20;99.90;;;;;;5068742;28;20312;-48
2023/05/30 05:01:03;;;;;;;;;;;12.20;99.90;;;;;;5069455;28;19963;-48
2023/05/30 05:03:29;;;;;;;;;;;12.30;99.90;;;;;;5069180;28;20344;-49
2023/05/30 05:05:55;;;;;;;;;;;12.30;99.90;;;;;;5069205;28;19916;-50
2023/05/30 05:08:20;;;;;;;;;;;12.30;99.90;;;;;;5068948;28;19923;-50
2023/05/30 05:10:46;;;;;;;;;;;12.40;99.90;;;;;;5068870;28;20285;-48
2023/05/30 05:13:11;;;;;;;;;;;12.40;99.90;;;;;;5069292;28;19917;-51
2023/05/30 05:15:37;;;;;;;;;;;12.40;99.90;;;;;;5069122;28;20007;-48
2023/05/30 05:18:02;;;;;;;;;;;12.40;99.90;;;;;;5068340;28;20434;-48
2023/05/30 05:20:28;;;;;;;;;;;12.40;99.90;;;;;;5051366;28;20544;-54
2023/05/30 05:22:55;;;;;;;;;;;12.40;99.90;;;;;;5070437;28;19923;-55
2023/05/30 05:25:21;;;;;;;;;;;12.50;99.90;;;;;;5072970;28;19974;-53
2023/05/30 05:27:46;;;;;;;;;;;12.50;99.90;;;;;;5072328;28;20033;-55
2023/05/30 05:30:12;;;;;;;;;;;12.50;99.90;;;;;;5072535;28;19967;-53
2023/05/30 05:32:38;;;;;;;;;;;12.50;99.90;;;;;;5072950;28;19970;-55
2023/05/30 05:35:05;;;;;;;;;;;12.60;99.90;;;;;;5072476;28;20393;-49
2023/05/30 05:37:30;;;;;;;;;;;12.60;99.90;;;;;;5071957;28;19916;-54
2023/05/30 05:39:56;;;;;;;;;;;12.70;99.90;;;;;;5072550;28;20466;-53
2023/05/30 05:42:21;;;;;;;;;;;12.70;99.90;;;;;;5073160;28;20405;-53
2023/05/30 05:44:47;;;;;;;;;;;12.70;99.90;;;;;;5072175;28;20024;-50
2023/05/30 05:47:12;;;;;;;;;;;12.70;99.90;;;;;;5072058;28;19939;-54
2023/05/30 05:49:38;;;;;;;;;;;12.70;99.90;;;;;;5071448;28;19963;-49
2023/05/30 05:52:03;;;;;;;;;;;12.80;99.90;;;;;;5072866;28;20003;-52
2023/05/30 05:54:29;;;;;;;;;;;12.80;99.90;;;;;;5072120;28;19921;-54
2023/05/30 05:56:54;;;;;;;;;;;12.90;99.90;;;;;;5071582;28;19916;-53
2023/05/30 05:59:20;;;;;;;;;;;12.90;99.90;;;;;;5064895;28;19928;-53
2023/05/30 06:01:45;;;;;;;;;;;12.90;99.90;;;;;;5071347;28;19921;-55
2023/05/30 06:04:11;;;;;;;;;;;13.00;99.90;;;;;;5065314;28;20397;-54
2023/05/30 06:06:37;;;;;;;;;;;13.00;99.90;;;;;;5070042;28;19920;-52
2023/05/30 06:09:03;;;;;;;;;;;13.10;99.90;;;;;;5071344;28;20343;-49
2023/05/30 06:11:28;;;;;;;;;;;13.20;99.90;;;;;;5064279;28;20391;-53
2023/05/30 06:13:54;;;;;;;;;;;13.20;99.90;;;;;;5051367;28;19917;-54
2023/05/30 06:16:19;;;;;;;;;;;13.30;99.90;;;;;;5051742;28;19924;-53
2023/05/30 06:18:45;;;;;;;;;;;13.30;99.90;;;;;;5051122;28;19923;-54
2023/05/30 06:21:10;;;;;;;;;;;13.30;99.90;;;;;;5052003;28;20013;-50
2023/05/30 06:23:36;;;;;;;;;;;13.40;99.90;;;;;;5041708;28;20369;-49
2023/05/30 06:26:02;;;;;;;;;;;13.40;99.90;;;;;;5071817;28;19920;-51
2023/05/30 06:28:27;;;;;;;;;;;13.40;99.90;;;;;;5071216;28;19916;-52
2023/05/30 06:30:53;;;;;;;;;;;13.40;99.90;;;;;;5066977;28;19920;-49
2023/05/30 06:33:20;;;;;;;;;;;13.40;99.90;;;;;;5086460;28;19923;-48
2023/05/30 06:35:46;;;;;;;;;;;13.40;99.90;;;;;;5076847;28;20035;-52
2023/05/30 06:38:12;;;;;;;;;;;13.50;99.90;;;;;;5091105;28;20018;-49
2023/05/30 06:40:37;;;;;;;;;;;13.50;99.90;;;;;;5091995;28;19920;-49
2023/05/30 06:43:03;;;;;;;;;;;13.50;99.90;;;;;;5080628;28;19916;-48
2023/05/30 06:45:28;;;;;;;;;;;13.50;99.90;;;;;;5071025;28;19916;-51
2023/05/30 06:47:54;;;;;;;;;;;13.50;99.90;;;;;;5060014;28;19923;-48
2023/05/30 06:50:19;;;;;;;;;;;13.50;99.90;;;;;;5091952;28;19955;-48
2023/05/30 06:52:45;;;;;;;;;;;13.50;99.90;;;;;;5054165;28;19963;-50
2023/05/30 06:55:10;;;;;;;;;;;13.60;99.90;;;;;;5064240;28;19920;-52
2023/05/30 06:57:39;;;;;;;;;;;13.60;99.90;;;;;;5071161;28;20065;-50
2023/05/30 07:00:05;;;;;;;;;;;13.60;99.90;;;;;;5071272;28;19967;-48
2023/05/30 07:02:30;;;;;;;;;;;13.70;99.90;;;;;;5071681;28;19951;-50
2023/05/30 07:04:56;;;;;;;;;;;13.70;99.90;;;;;;5070962;28;20376;-49
2023/05/30 07:07:21;;;;;;;;;;;13.70;99.90;;;;;;5071754;28;19922;-54
2023/05/30 07:09:47;;;;;;;;;;;13.70;99.90;;;;;;5070671;28;20339;-51
2023/05/30 07:12:12;;;;;;;;;;;13.80;99.90;;;;;;5069394;28;19917;-53
2023/05/30 07:14:37;;;;;;;;;;;13.80;99.90;;;;;;5056437;28;19942;-52
2023/05/30 07:17:06;;;;;;;;;;;13.80;99.90;;;;;;5056360;28;20430;-55
2023/05/30 07:19:32;;;;;;;;;;;13.90;99.90;;;;;;5064766;28;19924;-52
2023/05/30 07:21:57;;;;;;;;;;;13.90;99.90;;;;;;5063837;28;19916;-56
2023/05/30 07:24:23;;;;;;;;;;;13.90;99.90;;;;;;5066607;28;19916;-55
2023/05/30 07:26:51;;;;;;;;;;;13.90;99.90;;;;;;5065533;28;20073;-55
2023/05/30 07:29:17;;;;;;;;;;;13.90;99.90;;;;;;5064354;28;19928;-51
2023/05/30 07:31:43;;;;;;;;;;;13.90;99.90;;;;;;5065805;28;20385;-51
2023/05/30 07:34:09;;;;;;;;;;;13.90;99.90;;;;;;5063470;28;19963;-54
2023/05/30 07:36:34;;;;;;;;;;;14.00;99.90;;;;;;5065031;28;19939;-52
2023/05/30 07:39:00;;;;;;;;;;;14.00;99.90;;;;;;5064054;28;19951;-53
2023/05/30 07:41:26;;;;;;;;;;;14.00;99.90;;;;;;5063969;28;19916;-52
2023/05/30 07:43:51;;;;;;;;;;;14.00;99.90;;;;;;5061711;28;19920;-49
2023/05/30 07:46:17;;;;;;;;;;;14.00;99.90;;;;;;5063672;28;19994;-52
2023/05/30 07:48:43;;;;;;;;;;;13.90;99.90;;;;;;5063464;28;20624;-50
2023/05/30 07:51:09;;;;;;;;;;;14.00;99.90;;;;;;5065388;28;19916;-50
2023/05/30 07:53:36;;;;;;;;;;;14.00;99.90;;;;;;5063898;28;19916;-50
2023/05/30 07:56:02;;;;;;;;;;;14.00;99.90;;;;;;5065219;28;19920;-50
2023/05/30 07:58:28;;;;;;;;;;;14.00;99.90;;;;;;5060936;28;20195;-53
2023/05/30 08:00:53;;;;;;;;;;;14.00;99.90;;;;;;5063683;28;19966;-49
2023/05/30 08:03:18;;;;;;;;;;;14.00;99.90;;;;;;5062769;28;19920;-52
2023/05/30 08:05:46;;;;;;;;;;;14.00;99.90;;;;;;5063299;28;19917;-49
2023/05/30 08:08:12;;;;;;;;;;;14.00;99.90;;;;;;5063116;28;19973;-53
2023/05/30 08:10:38;;;;;;;;;;;14.00;99.90;;;;;;5064880;28;19920;-49
2023/05/30 08:13:03;;;;;;;;;;;14.00;99.90;;;;;;5064002;28;19921;-49
2023/05/30 08:15:29;;;;;;;;;;;14.10;99.90;;;;;;5064246;28;19920;-49
2023/05/30 08:17:56;;;;;;;;;;;14.10;99.90;;;;;;5061766;28;20184;-50
2023/05/30 08:20:22;;;;;;;;;;;14.10;99.90;;;;;;5059173;28;19920;-53
2023/05/30 08:22:47;;;;;;;;;;;14.20;99.90;;;;;;5060082;28;20393;-49
2023/05/30 08:25:13;;;;;;;;;;;14.20;99.90;;;;;;5062778;28;19916;-49
2023/05/30 08:27:39;;;;;;;;;;;14.20;99.90;;;;;;5061140;28;19916;-52
2023/05/30 08:30:05;;;;;;;;;;;14.20;99.90;;;;;;5063079;28;19924;-51
2023/05/30 08:32:32;;;;;;;;;;;14.20;99.90;;;;;;5063013;28;20015;-54
2023/05/30 08:34:58;;;;;;;;;;;14.20;99.90;;;;;;5063253;28;20335;-52
2023/05/30 08:37:23;;;;;;;;;;;14.20;99.90;;;;;;5063649;28;19920;-52
2023/05/30 08:39:49;;;;;;;;;;;14.30;99.90;;;;;;5064104;28;20138;-49
2023/05/30 08:42:14;;;;;;;;;;;14.20;99.90;;;;;;5064005;28;20021;-49
2023/05/30 08:44:40;;;;;;;;;;;14.20;99.90;;;;;;5064530;28;20010;-49
2023/05/30 08:47:11;;;;;;;;;;;14.20;99.90;;;;;;5063915;28;19916;-50
2023/05/30 08:49:40;;;;;;;;;;;14.20;99.90;;;;;;5061004;28;20289;-49
2023/05/30 08:52:06;;;;;;;;;;;14.20;99.90;;;;;;5060278;28;19920;-49
2023/05/30 08:54:38;;;;;;;;;;;14.20;99.90;;;;;;5062951;28;20065;-50
2023/05/30 08:57:31;;;;;;;;;;;14.20;99.90;;;;;;5063759;28;20211;-49
2023/05/30 08:59:57;;;;;;;;;;;14.20;99.90;;;;;;5042503;28;19928;-51
2023/05/30 09:02:23;;;;;;;;;;;14.20;99.90;;;;;;5064243;28;19927;-53
2023/05/30 09:04:50;;;;;;;;;;;14.20;99.90;;;;;;5062052;28;19920;-49
2023/05/30 09:07:16;;;;;;;;;;;14.20;99.90;;;;;;5065900;28;20064;-49
2023/05/30 09:09:42;;;;;;;;;;;14.20;99.90;;;;;;5064731;28;20739;-49
2023/05/30 09:12:09;;;;;;;;;;;14.20;99.90;;;;;;5064175;28;20348;-49
2023/05/30 09:14:35;;;;;;;;;;;14.10;99.90;;;;;;5062264;28;19917;-49
2023/05/30 09:17:01;;;;;;;;;;;14.10;99.90;;;;;;5066499;28;19927;-53
2023/05/30 09:19:26;;;;;;;;;;;14.10;99.90;;;;;;5066262;28;20336;-49
2023/05/30 09:21:52;;;;;;;;;;;14.10;99.90;;;;;;5065983;28;19924;-50
2023/05/30 09:24:18;;;;;;;;;;;14.10;99.90;;;;;;5065323;28;19993;-50
2023/05/30 09:27:01;;;;;;;;;;;14.10;99.90;;;;;;5068004;28;20007;-51
2023/05/30 09:29:26;;;;;;;;;;;14.10;99.90;;;;;;5064888;28;20580;-48
2023/05/30 09:31:52;;;;;;;;;;;14.10;99.90;;;;;;5067847;28;19920;-51
2023/05/30 09:34:20;;;;;;;;;;;14.10;99.90;;;;;;5064634;28;19917;-50
2023/05/30 09:36:52;;;;;;;;;;;14.20;99.90;;;;;;5065917;28;19923;-51
2023/05/30 09:39:18;;;;;;;;;;;14.20;99.90;;;;;;5065105;28;19927;-50
2023/05/30 09:41:45;;;;;;;;;;;14.20;99.90;;;;;;5065283;28;19920;-52
2023/05/30 09:44:10;;;;;;;;;;;14.20;99.90;;;;;;5067648;28;19984;-51
2023/05/30 09:46:37;;;;;;;;;;;14.20;99.90;;;;;;5067680;28;19958;-49
2023/05/30 09:49:10;;;;;;;;;;;14.20;99.90;;;;;;5067006;28;19927;-50
2023/05/30 09:51:37;;;;;;;;;;;14.20;99.90;;;;;;5066745;28;19917;-50
2023/05/30 09:54:03;;;;;;;;;;;14.20;99.90;;;;;;5066504;28;19946;-50
2023/05/30 09:56:32;;;;;;;;;;;14.20;99.90;;;;;;5065871;28;19958;-51
2023/05/30 09:59:00;;;;;;;;;;;14.20;99.90;;;;;;5065580;28;20081;-50
2023/05/30 10:01:34;;;;;;;;;;;14.20;99.90;;;;;;5066053;28;19935;-50
2023/05/30 10:03:59;;;;;;;;;;;14.20;99.90;;;;;;5064228;28;19916;-50
2023/05/30 10:06:25;;;;;;;;;;;14.20;99.90;;;;;;5048358;28;19916;-52
2023/05/30 10:08:50;;;;;;;;;;;14.20;99.90;;;;;;5062547;28;19972;-53
2023/05/30 10:11:16;;;;;;;;;;;14.30;99.90;;;;;;5066014;28;19924;-53
2023/05/30 10:13:42;;;;;;;;;;;14.30;99.90;;;;;;5066959;28;19932;-52
2023/05/30 10:16:11;;;;;;;;;;;14.30;99.90;;;;;;5067187;28;20369;-51
2023/05/30 10:18:39;;;;;;;;;;;14.30;99.90;;;;;;5063833;28;20110;-50
2023/05/30 10:21:07;;;;;;;;;;;14.40;99.90;;;;;;5062027;28;19931;-51
2023/05/30 10:23:32;;;;;;;;;;;14.40;99.90;;;;;;5065641;28;19982;-51
2023/05/30 10:25:59;;;;;;;;;;;14.50;99.90;;;;;;5068607;28;19963;-50
2023/05/30 10:28:28;;;;;;;;;;;14.50;99.90;;;;;;5064064;28;19928;-51
2023/05/30 10:30:55;;;;;;;;;;;14.50;99.90;;;;;;5063953;28;20364;-53
2023/05/30 10:33:21;;;;;;;;;;;14.50;99.90;;;;;;5064852;28;19920;-50
2023/05/30 10:35:47;;;;;;;;;;;14.40;99.90;;;;;;5064457;28;20196;-50
2023/05/30 10:38:12;;;;;;;;;;;14.50;99.90;;;;;;5062444;28;19920;-52
2023/05/30 10:40:38;;;;;;;;;;;14.50;99.90;;;;;;5048438;28;20534;-50
2023/05/30 10:43:10;;;;;;;;;;;14.60;99.90;;;;;;5064606;28;19923;-54
2023/05/30 10:45:45;;;;;;;;;;;14.60;99.90;;;;;;5064810;28;19951;-51
2023/05/30 10:48:38;;;;;;;;;;;14.60;99.90;;;;;;5061532;28;19996;-50
2023/05/30 10:51:04;;;;;;;;;;;14.70;99.90;;;;;;5038675;28;19924;-52
2023/05/30 10:53:38;;;;;;;;;;;14.70;99.90;;;;;;5064169;28;20273;-54
2023/05/30 10:56:25;;;;;;;;;;;14.70;99.90;;;;;;5064514;28;20397;-52
2023/05/30 10:58:50;;;;;;;;;;;14.80;99.90;;;;;;5061247;28;19920;-50
2023/05/30 11:01:26;;;;;;;;;;;14.70;99.90;;;;;;5065103;28;20052;-49
2023/05/30 11:03:58;;;;;;;;;;;14.70;99.90;;;;;;5063848;28;19920;-53
2023/05/30 11:06:25;;;;;;;;;;;14.80;99.90;;;;;;5064381;28;19916;-53
2023/05/30 11:08:52;;;;;;;;;;;14.80;99.90;;;;;;5062527;28;19993;-52
2023/05/30 11:11:18;;;;;;;;;;;14.80;99.90;;;;;;5064144;28;19924;-51
2023/05/30 11:13:44;;;;;;;;;;;14.80;99.90;;;;;;5063233;28;19939;-52
2023/05/30 11:16:23;;;;;;;;;;;14.90;99.90;;;;;;5063736;28;19920;-51
2023/05/30 11:18:51;;;;;;;;;;;14.90;99.90;;;;;;5062496;28;19920;-52
2023/05/30 11:21:36;;;;;;;;;;;14.90;99.90;;;;;;5063360;28;19929;-51
2023/05/30 11:24:03;;;;;;;;;;;14.90;99.90;;;;;;5060794;28;19917;-50
2023/05/30 11:26:47;;;;;;;;;;;14.90;99.90;;;;;;5064396;28;20316;-52
2023/05/30 11:29:30;;;;;;;;;;;14.90;99.90;;;;;;5062624;28;19931;-53
2023/05/30 11:31:56;;;;;;;;;;;15.00;99.90;;;;;;5045470;28;19942;-50
2023/05/30 11:34:22;;;;;;;;;;;14.90;99.90;;;;;;5062563;28;20027;-53
2023/05/30 11:36:48;;;;;;;;;;;15.00;99.90;;;;;;5063918;28;19927;-55
2023/05/30 11:39:13;;;;;;;;;;;15.00;99.90;;;;;;5062256;28;19928;-52
2023/05/30 11:41:40;;;;;;;;;;;15.10;99.90;;;;;;5062743;28;19956;-52
2023/05/30 11:44:07;;;;;;;;;;;15.10;99.90;;;;;;5062622;28;19924;-52
2023/05/30 11:46:32;;;;;;;;;;;15.10;99.90;;;;;;5063698;28;19920;-52
2023/05/30 11:49:02;;;;;;;;;;;15.20;99.90;;;;;;5059386;28;19916;-52
2023/05/30 11:51:30;;;;;;;;;;;15.20;99.90;;;;;;5063404;28;19998;-51
2023/05/30 11:53:56;;;;;;;;;;;15.20;99.90;;;;;;5059961;28;19927;-51
2023/05/30 11:56:22;;;;;;;;;;;15.20;99.90;;;;;;5063784;28;19931;-52
2023/05/30 11:58:50;;;;;;;;;;;15.30;99.90;;;;;;5062361;28;20137;-54
2023/05/30 12:01:16;;;;;;;;;;;15.30;99.90;;;;;;5063072;28;19920;-55
2023/05/30 12:03:43;;;;;;;;;;;15.30;99.90;;;;;;5044916;28;20408;-52
2023/05/30 12:06:12;;;;;;;;;;;15.40;99.90;;;;;;5063688;28;19917;-53
2023/05/30 12:08:41;;;;;;;;;;;15.40;99.90;;;;;;5062839;28;19928;-52
2023/05/30 12:11:06;;;;;;;;;;;15.40;99.90;;;;;;5063101;28;19977;-50
2023/05/30 12:13:32;;;;;;;;;;;15.40;99.90;;;;;;5063106;28;19917;-54
2023/05/30 12:15:57;;;;;;;;;;;15.40;99.90;;;;;;5062854;28;19960;-51
2023/05/30 12:18:23;;;;;;;;;;;15.40;99.90;;;;;;5062560;28;20383;-52
2023/05/30 12:20:48;;;;;;;;;;;15.40;99.90;;;;;;5061549;28;19924;-53
2023/05/30 12:23:14;;;;;;;;;;;15.40;99.90;;;;;;5063108;28;19924;-51
2023/05/30 12:25:47;;;;;;;;;;;15.50;99.90;;;;;;5063011;28;19947;-52
2023/05/30 12:28:13;;;;;;;;;;;15.50;99.90;;;;;;5062546;28;19924;-51
2023/05/30 12:30:42;;;;;;;;;;;15.50;99.90;;;;;;5062834;28;19955;-54
2023/05/30 12:33:17;;;;;;;;;;;15.50;99.90;;;;;;5065899;28;19927;-52
2023/05/30 12:35:44;;;;;;;;;;;15.50;99.90;;;;;;5067104;28;19924;-50
2023/05/30 12:38:11;;;;;;;;;;;15.50;99.90;;;;;;5066119;28;20228;-50
2023/05/30 12:40:41;;;;;;;;;;;15.50;99.90;;;;;;5065454;28;19920;-51
2023/05/30 12:43:06;;;;;;;;;;;15.50;99.90;;;;;;5065989;28;19928;-52
2023/05/30 12:45:35;;;;;;;;;;;15.50;99.90;;;;;;5067340;28;19927;-53
2023/05/30 12:48:00;;;;;;;;;;;15.50;99.90;;;;;;5064269;28;20195;-52
2023/05/30 12:50:26;;;;;;;;;;;15.40;99.90;;;;;;5067362;28;20152;-51
2023/05/30 12:52:51;;;;;;;;;;;15.40;99.90;;;;;;5065437;28;19931;-53
2023/05/30 12:55:17;;;;;;;;;;;15.40;99.90;;;;;;5066105;28;20452;-51
2023/05/30 12:57:42;;;;;;;;;;;15.50;99.90;;;;;;5064875;28;19963;-51
2023/05/30 13:00:09;;;;;;;;;;;15.50;99.90;;;;;;5065555;28;19924;-50
2023/05/30 13:02:35;;;;;;;;;;;15.50;99.90;;;;;;5046609;28;19977;-50
2023/05/30 13:05:01;;;;;;;;;;;15.50;99.90;;;;;;5064413;28;19935;-50
2023/05/30 13:07:27;;;;;;;;;;;15.50;99.90;;;;;;5064360;28;20195;-54
2023/05/30 13:09:52;;;;;;;;;;;15.60;99.90;;;;;;5047318;28;19923;-50
2023/05/30 13:12:18;;;;;;;;;;;15.60;99.90;;;;;;5065905;28;19924;-51
2023/05/30 13:14:44;;;;;;;;;;;15.60;99.90;;;;;;5066451;28;19924;-53
2023/05/30 13:17:10;;;;;;;;;;;15.60;99.90;;;;;;5067028;28;19923;-54
2023/05/30 13:19:36;;;;;;;;;;;15.60;99.90;;;;;;5065751;28;19920;-53
2023/05/30 13:22:03;;;;;;;;;;;15.70;99.90;;;;;;5067345;28;20379;-51
2023/05/30 13:24:30;;;;;;;;;;;15.70;99.90;;;;;;5067037;28;19946;-51
2023/05/30 13:26:56;;;;;;;;;;;15.70;99.90;;;;;;5063477;28;19925;-51
2023/05/30 13:29:21;;;;;;;;;;;15.80;99.90;;;;;;5066132;28;20292;-52
2023/05/30 13:31:47;;;;;;;;;;;15.80;99.90;;;;;;5067540;28;19925;-54
2023/05/30 13:34:12;;;;;;;;;;;15.80;99.90;;;;;;5063390;28;20276;-52
2023/05/30 13:36:38;;;;;;;;;;;15.80;99.90;;;;;;5066368;28;20450;-50
2023/05/30 13:39:04;;;;;;;;;;;15.80;99.90;;;;;;5065454;28;19978;-51
2023/05/30 13:41:29;;;;;;;;;;;15.80;99.90;;;;;;5066764;28;19920;-51
2023/05/30 13:43:57;;;;;;;;;;;15.90;99.90;;;;;;5066128;28;20383;-52
2023/05/30 13:46:22;;;;;;;;;;;15.90;99.90;;;;;;5066308;28;19927;-52
2023/05/30 13:48:48;;;;;;;;;;;16.00;99.90;;;;;;5066093;28;19916;-53
2023/05/30 13:51:13;;;;;;;;;;;16.00;99.90;;;;;;5066289;28;19970;-53
2023/05/30 13:53:39;;;;;;;;;;;16.10;99.90;;;;;;5066242;28;20436;-53
2023/05/30 13:56:07;;;;;;;;;;;16.20;99.90;;;;;;5066048;28;20305;-49
2023/05/30 13:58:32;;;;;;;;;;;16.20;99.90;;;;;;5065171;28;19971;-54
2023/05/30 14:00:58;;;;;;;;;;;16.10;99.90;;;;;;5065467;28;19924;-54
2023/05/30 14:03:24;;;;;;;;;;;16.20;99.90;;;;;;5066491;28;19985;-52
2023/05/30 14:05:49;;;;;;;;;;;16.20;99.90;;;;;;5047662;28;19920;-50
2023/05/30 14:08:15;;;;;;;;;;;16.20;99.90;;;;;;5066235;28;19920;-52
2023/05/30 14:10:41;;;;;;;;;;;16.20;99.90;;;;;;5064203;28;19973;-53
2023/05/30 14:13:07;;;;;;;;;;;16.30;99.90;;;;;;5063750;28;19917;-51